Time;durP1;ratioP1;P1;durP2;ratioP2;P2;SDS_P1;SDS_P2;PMS_P1;PMS_P2;Temp;Humidity;BMP_temperature;BMP_pressure;BME280_temperature;BME280_humidity;BME280_pressure;Samples;Min_cycle;Max_cycle;Signal;HPM_P1;HPM_P2
2021/11/05 00:01:22;;;;;;;31.45;28.77;;;;;;;;;;5030259;28;20103;-41
2021/11/05 00:03:49;;;;;;;29.90;27.25;;;;;;;;;;5030288;28;20065;-42
2021/11/05 00:06:16;;;;;;;49.60;28.40;;;;;;;;;;5029077;28;20037;-43
2021/11/05 00:08:42;;;;;;;29.65;27.58;;;;;;;;;;5019509;28;20045;-40
2021/11/05 00:11:09;;;;;;;32.80;30.13;;;;;;;;;;5031851;28;20076;-42
2021/11/05 00:13:36;;;;;;;44.80;31.25;;;;;;;;;;5026651;28;20441;-43
2021/11/05 00:16:03;;;;;;;37.83;27.63;;;;;;;;;;5036395;28;20044;-44
2021/11/05 00:18:30;;;;;;;67.95;55.13;;;;;;;;;;5036064;28;20046;-41
2021/11/05 00:20:57;;;;;;;42.60;38.17;;;;;;;;;;5031783;28;20065;-41
2021/11/05 00:23:23;;;;;;;35.75;32.47;;;;;;;;;;5032012;28;20033;-44
2021/11/05 00:25:50;;;;;;;32.88;30.10;;;;;;;;;;5027122;28;20065;-42
2021/11/05 00:28:17;;;;;;;32.53;29.73;;;;;;;;;;5032153;28;20057;-43
2021/11/05 00:30:45;;;;;;;39.00;35.40;;;;;;;;;;5033335;28;20041;-46
2021/11/05 00:33:12;;;;;;;27.63;25.95;;;;;;;;;;5030924;28;20092;-45
2021/11/05 00:35:39;;;;;;;28.42;25.90;;;;;;;;;;5029825;28;20120;-44
2021/11/05 00:38:05;;;;;;;21.27;20.30;;;;;;;;;;5036905;28;20065;-43
2021/11/05 00:40:32;;;;;;;21.95;20.92;;;;;;;;;;5033125;28;20033;-42
2021/11/05 00:42:59;;;;;;;23.80;22.58;;;;;;;;;;5023785;28;20056;-43
2021/11/05 00:45:26;;;;;;;24.23;22.80;;;;;;;;;;5020254;28;20045;-44
2021/11/05 00:47:53;;;;;;;20.58;19.52;;;;;;;;;;5027112;28;20045;-41
2021/11/05 00:50:20;;;;;;;20.83;19.50;;;;;;;;;;5024458;28;20095;-42
2021/11/05 00:52:47;;;;;;;21.40;20.52;;;;;;;;;;5030977;28;20041;-44
2021/11/05 00:55:13;;;;;;;25.52;23.70;;;;;;;;;;5031800;28;20063;-43
2021/11/05 00:57:40;;;;;;;28.35;26.27;;;;;;;;;;5024007;28;20120;-42
2021/11/05 01:00:12;;;;;;;30.58;28.08;;;;;;;;;;5025581;28;20030;-42
2021/11/05 01:02:39;;;;;;;27.98;25.88;;;;;;;;;;5017775;28;20057;-45
2021/11/05 01:05:09;;;;;;;28.45;26.45;;;;;;;;;;5029325;28;20041;-44
2021/11/05 01:07:36;;;;;;;32.97;30.40;;;;;;;;;;5030408;28;20058;-42
2021/11/05 01:10:03;;;;;;;29.38;27.33;;;;;;;;;;5034777;28;20373;-42
2021/11/05 01:12:30;;;;;;;31.77;29.13;;;;;;;;;;5028942;28;20033;-44
2021/11/05 01:14:57;;;;;;;33.83;25.83;;;;;;;;;;5025779;28;20072;-43
2021/11/05 01:17:24;;;;;;;263.35;31.48;;;;;;;;;;5029366;28;20042;-42
2021/11/05 01:19:51;;;;;;;237.25;28.35;;;;;;;;;;5029646;28;20038;-44
2021/11/05 01:22:17;;;;;;;207.93;29.45;;;;;;;;;;5030411;28;20080;-42
2021/11/05 01:24:44;;;;;;;267.33;31.63;;;;;;;;;;5030292;28;20485;-45
2021/11/05 01:27:11;;;;;;;26.38;24.38;;;;;;;;;;5036269;28;20041;-44
2021/11/05 01:29:38;;;;;;;76.63;27.02;;;;;;;;;;5031907;28;20069;-40
2021/11/05 01:32:05;;;;;;;331.63;34.40;;;;;;;;;;5029236;28;20493;-43
2021/11/05 01:34:32;;;;;;;201.00;27.85;;;;;;;;;;5031447;28;20409;-43
2021/11/05 01:36:59;;;;;;;71.85;24.65;;;;;;;;;;5026185;28;20424;-42
2021/11/05 01:39:25;;;;;;;77.88;24.90;;;;;;;;;;5019378;28;20057;-43
2021/11/05 01:41:53;;;;;;;68.78;25.33;;;;;;;;;;5026424;28;20112;-43
2021/11/05 01:44:25;;;;;;;53.33;26.10;;;;;;;;;;5031498;28;20135;-42
2021/11/05 01:46:54;;;;;;;56.55;24.92;;;;;;;;;;5029714;28;20059;-43
2021/11/05 01:49:21;;;;;;;37.70;23.83;;;;;;;;;;5032857;28;20037;-43
2021/11/05 01:51:48;;;;;;;80.22;27.42;;;;;;;;;;5021904;28;20442;-44
2021/11/05 01:54:15;;;;;;;37.78;23.20;;;;;;;;;;5023146;28;20096;-42
2021/11/05 01:56:42;;;;;;;26.15;22.65;;;;;;;;;;5031417;28;20053;-41
2021/11/05 01:59:22;;;;;;;22.98;21.73;;;;;;;;;;5027168;28;20091;-43
2021/11/05 02:01:50;;;;;;;23.95;22.85;;;;;;;;;;5030251;28;20034;-43
2021/11/05 02:04:17;;;;;;;24.98;22.80;;;;;;;;;;5028843;28;20045;-42
2021/11/05 02:06:45;;;;;;;22.23;20.35;;;;;;;;;;5029065;28;20132;-42
2021/11/05 02:09:15;;;;;;;22.58;21.30;;;;;;;;;;5037111;28;20493;-44
2021/11/05 02:11:43;;;;;;;23.77;22.67;;;;;;;;;;5025422;28;20034;-45
2021/11/05 02:14:13;;;;;;;21.50;20.88;;;;;;;;;;5028215;28;20445;-43
2021/11/05 02:16:42;;;;;;;22.42;21.48;;;;;;;;;;5028997;28;20618;-43
2021/11/05 02:19:13;;;;;;;21.15;20.70;;;;;;;;;;5037358;28;20049;-41
2021/11/05 02:21:41;;;;;;;21.63;20.63;;;;;;;;;;5028253;28;20037;-43
2021/11/05 02:24:08;;;;;;;20.45;19.35;;;;;;;;;;5028173;28;20080;-43
2021/11/05 02:26:35;;;;;;;23.65;22.40;;;;;;;;;;5029338;28;20132;-41
2021/11/05 02:29:03;;;;;;;23.92;22.92;;;;;;;;;;5028863;28;20037;-45
2021/11/05 02:31:30;;;;;;;23.10;22.30;;;;;;;;;;5022271;28;20083;-43
2021/11/05 02:33:57;;;;;;;22.92;22.10;;;;;;;;;;5030043;28;20076;-41
2021/11/05 02:36:24;;;;;;;23.60;22.50;;;;;;;;;;5025103;28;20042;-42
2021/11/05 02:38:51;;;;;;;42.50;24.98;;;;;;;;;;5028489;28;20042;-42
2021/11/05 02:41:20;;;;;;;25.17;23.88;;;;;;;;;;5028951;28;20478;-42
2021/11/05 02:43:48;;;;;;;180.45;28.77;;;;;;;;;;5023824;28;20606;-41
2021/11/05 02:46:15;;;;;;;28.00;26.15;;;;;;;;;;5020785;28;20045;-45
2021/11/05 02:48:42;;;;;;;21.80;20.80;;;;;;;;;;5024118;28;20489;-41
2021/11/05 02:51:09;;;;;;;172.07;31.23;;;;;;;;;;5029791;28;20052;-42
2021/11/05 02:53:38;;;;;;;25.67;24.27;;;;;;;;;;5029237;28;20276;-42
2021/11/05 02:56:05;;;;;;;23.70;22.80;;;;;;;;;;5027022;28;20041;-45
2021/11/05 02:58:32;;;;;;;26.23;24.80;;;;;;;;;;5029211;28;20030;-41
2021/11/05 03:01:00;;;;;;;57.45;26.08;;;;;;;;;;5033890;28;20033;-41
2021/11/05 03:03:27;;;;;;;95.85;24.85;;;;;;;;;;5029222;28;20446;-45
2021/11/05 03:05:54;;;;;;;22.30;20.88;;;;;;;;;;5029778;28;20044;-42
2021/11/05 03:08:20;;;;;;;22.88;22.08;;;;;;;;;;5036883;28;20052;-43
2021/11/05 03:10:47;;;;;;;22.52;21.42;;;;;;;;;;5028954;28;20061;-44
2021/11/05 03:13:14;;;;;;;22.63;21.63;;;;;;;;;;5023599;28;20036;-42
2021/11/05 03:15:41;;;;;;;21.30;20.48;;;;;;;;;;5028836;28;20064;-41
2021/11/05 03:18:08;;;;;;;23.52;22.40;;;;;;;;;;5025927;28;20047;-41
2021/11/05 03:20:34;;;;;;;21.92;20.83;;;;;;;;;;5029012;28;20072;-42
2021/11/05 03:23:02;;;;;;;23.73;22.75;;;;;;;;;;5029904;28;20076;-42
2021/11/05 03:25:28;;;;;;;22.85;21.85;;;;;;;;;;5029339;28;20029;-46
2021/11/05 03:27:55;;;;;;;26.52;24.98;;;;;;;;;;5027653;28;20034;-45
2021/11/05 03:30:22;;;;;;;24.05;22.75;;;;;;;;;;5028057;28;20050;-41
2021/11/05 03:32:49;;;;;;;63.33;25.77;;;;;;;;;;5043217;28;20076;-42
2021/11/05 03:35:15;;;;;;;25.75;24.45;;;;;;;;;;5032537;28;20037;-42
2021/11/05 03:37:43;;;;;;;68.60;25.80;;;;;;;;;;5031356;28;20090;-42
2021/11/05 03:40:11;;;;;;;28.35;23.83;;;;;;;;;;5032129;28;20037;-45
2021/11/05 03:42:38;;;;;;;26.75;24.58;;;;;;;;;;5031643;28;20049;-42
2021/11/05 03:45:05;;;;;;;77.50;26.02;;;;;;;;;;5016309;28;20038;-45
2021/11/05 03:47:32;;;;;;;52.45;25.65;;;;;;;;;;5030093;28;20041;-46
2021/11/05 03:49:59;;;;;;;74.60;26.73;;;;;;;;;;5031328;28;20626;-43
2021/11/05 03:52:25;;;;;;;76.47;27.88;;;;;;;;;;5031363;28;20543;-41
2021/11/05 03:54:52;;;;;;;97.90;29.40;;;;;;;;;;5027092;28;20042;-42
2021/11/05 03:57:19;;;;;;;69.13;25.20;;;;;;;;;;5038839;28;20037;-43
2021/11/05 03:59:46;;;;;;;141.48;26.90;;;;;;;;;;5033280;28;20404;-45
2021/11/05 04:02:13;;;;;;;77.53;24.52;;;;;;;;;;5036708;28;20059;-43
2021/11/05 04:04:39;;;;;;;173.02;29.77;;;;;;;;;;5033102;28;20095;-43
2021/11/05 04:07:06;;;;;;;36.80;24.85;;;;;;;;;;5025994;28;20041;-42
2021/11/05 04:09:33;;;;;;;27.17;24.92;;;;;;;;;;5026202;28;20095;-43
2021/11/05 04:12:00;;;;;;;22.20;20.73;;;;;;;;;;5030700;28;20124;-43
2021/11/05 04:14:26;;;;;;;24.65;23.40;;;;;;;;;;5033088;28;20060;-42
2021/11/05 04:16:53;;;;;;;23.25;22.17;;;;;;;;;;5034482;28;20535;-42
2021/11/05 04:19:20;;;;;;;21.67;20.55;;;;;;;;;;5023261;28;20065;-42
2021/11/05 04:21:47;;;;;;;21.25;20.45;;;;;;;;;;5032843;28;20045;-41
2021/11/05 04:24:14;;;;;;;21.05;20.10;;;;;;;;;;5030703;28;20556;-42
2021/11/05 04:26:41;;;;;;;21.80;20.52;;;;;;;;;;5031698;28;20108;-42
2021/11/05 04:29:08;;;;;;;20.88;19.38;;;;;;;;;;5029803;28;20524;-45
2021/11/05 04:31:34;;;;;;;20.27;19.50;;;;;;;;;;5030565;28;20107;-44
2021/11/05 04:34:02;;;;;;;18.98;18.15;;;;;;;;;;5028424;28;20103;-41
2021/11/05 04:36:28;;;;;;;18.10;17.80;;;;;;;;;;5021352;28;20137;-45
2021/11/05 04:38:55;;;;;;;20.00;19.42;;;;;;;;;;5032326;28;20072;-41
2021/11/05 04:41:23;;;;;;;19.73;18.98;;;;;;;;;;5030553;28;20041;-41
2021/11/05 04:43:50;;;;;;;20.23;19.42;;;;;;;;;;5030421;28;20049;-42
2021/11/05 04:46:18;;;;;;;20.17;19.60;;;;;;;;;;5029992;28;20527;-42
2021/11/05 04:48:44;;;;;;;21.45;20.65;;;;;;;;;;5021082;28;20041;-44
2021/11/05 04:51:11;;;;;;;20.50;19.75;;;;;;;;;;5026934;28;20143;-43
2021/11/05 04:53:39;;;;;;;20.55;19.50;;;;;;;;;;5030069;28;20499;-44
2021/11/05 04:56:06;;;;;;;17.83;17.20;;;;;;;;;;5031696;28;20046;-43
2021/11/05 04:58:33;;;;;;;18.23;17.60;;;;;;;;;;5030709;28;20481;-44
2021/11/05 05:01:00;;;;;;;21.83;21.13;;;;;;;;;;5024460;28;20057;-41
2021/11/05 05:03:27;;;;;;;18.63;18.10;;;;;;;;;;5024233;28;20080;-43
2021/11/05 05:05:54;;;;;;;18.45;17.55;;;;;;;;;;5024605;28;20132;-43
2021/11/05 05:08:20;;;;;;;16.48;16.13;;;;;;;;;;5026302;28;20544;-44
2021/11/05 05:10:47;;;;;;;18.77;18.13;;;;;;;;;;5028192;28;20091;-43
2021/11/05 05:13:14;;;;;;;17.98;17.50;;;;;;;;;;5035497;28;20045;-41
2021/11/05 05:15:40;;;;;;;20.35;19.50;;;;;;;;;;5029803;28;20054;-41
2021/11/05 05:18:07;;;;;;;22.45;21.73;;;;;;;;;;5029252;28;20065;-43
2021/11/05 05:20:35;;;;;;;20.33;19.17;;;;;;;;;;5025950;28;20037;-43
2021/11/05 05:23:02;;;;;;;21.02;20.08;;;;;;;;;;5028934;28;20099;-42
2021/11/05 05:25:28;;;;;;;24.85;23.08;;;;;;;;;;5018388;28;20466;-41
2021/11/05 05:27:55;;;;;;;23.27;21.95;;;;;;;;;;5031290;28;20069;-42
2021/11/05 05:30:22;;;;;;;24.90;23.00;;;;;;;;;;5019841;28;20041;-45
2021/11/05 05:32:50;;;;;;;24.10;22.85;;;;;;;;;;5026100;28;20099;-43
2021/11/05 05:35:17;;;;;;;24.08;22.88;;;;;;;;;;5029396;28;20052;-43
2021/11/05 05:37:44;;;;;;;105.88;27.98;;;;;;;;;;5011827;28;20058;-43
2021/11/05 05:40:11;;;;;;;61.25;21.63;;;;;;;;;;5029784;28;20088;-41
2021/11/05 05:42:38;;;;;;;24.27;22.30;;;;;;;;;;5021884;28;20080;-41
2021/11/05 05:45:05;;;;;;;120.22;27.30;;;;;;;;;;5030908;28;20447;-43
2021/11/05 05:47:32;;;;;;;27.38;22.70;;;;;;;;;;5028290;28;20516;-41
2021/11/05 05:49:59;;;;;;;130.95;27.00;;;;;;;;;;5014415;28;20512;-42
2021/11/05 05:52:26;;;;;;;24.95;23.08;;;;;;;;;;5028566;28;20160;-41
2021/11/05 05:54:52;;;;;;;22.50;21.65;;;;;;;;;;5020484;28;20041;-43
2021/11/05 05:57:19;;;;;;;82.50;24.63;;;;;;;;;;5027007;28;20042;-41
2021/11/05 05:59:46;;;;;;;22.63;21.52;;;;;;;;;;5020196;28;20045;-44
2021/11/05 06:02:13;;;;;;;22.58;21.90;;;;;;;;;;5030209;28;20077;-42
2021/11/05 06:04:39;;;;;;;22.63;21.75;;;;;;;;;;5028873;28;20533;-43
2021/11/05 06:07:06;;;;;;;22.05;21.15;;;;;;;;;;5026220;28;20072;-41
2021/11/05 06:09:33;;;;;;;28.42;20.98;;;;;;;;;;5033108;28;20095;-42
2021/11/05 06:12:00;;;;;;;22.05;21.45;;;;;;;;;;5028277;28;20037;-42
2021/11/05 06:14:27;;;;;;;21.60;21.02;;;;;;;;;;5028400;28;20103;-42
2021/11/05 06:16:54;;;;;;;22.02;21.38;;;;;;;;;;5030888;28;20096;-42
2021/11/05 06:19:21;;;;;;;20.35;19.25;;;;;;;;;;5021949;28;20046;-43
2021/11/05 06:21:48;;;;;;;22.27;21.55;;;;;;;;;;5025903;28;20042;-42
2021/11/05 06:24:15;;;;;;;23.65;22.77;;;;;;;;;;5028290;28;20068;-42
2021/11/05 06:26:41;;;;;;;24.17;22.77;;;;;;;;;;5029085;28;20041;-48
2021/11/05 06:29:08;;;;;;;27.35;25.45;;;;;;;;;;5029467;28;20037;-48
2021/11/05 06:31:35;;;;;;;24.65;23.23;;;;;;;;;;5031038;28;20037;-49
2021/11/05 06:34:03;;;;;;;274.63;31.85;;;;;;;;;;5027825;28;20473;-46
2021/11/05 06:36:30;;;;;;;168.15;27.42;;;;;;;;;;5029092;28;20088;-47
2021/11/05 06:38:58;;;;;;;302.00;30.75;;;;;;;;;;5029197;28;20041;-48
2021/11/05 06:41:26;;;;;;;223.45;28.27;;;;;;;;;;5028850;28;20033;-51
2021/11/05 06:43:53;;;;;;;186.07;26.15;;;;;;;;;;5028258;28;20061;-49
2021/11/05 06:46:20;;;;;;;318.65;30.85;;;;;;;;;;5024252;28;20045;-50
2021/11/05 06:48:47;;;;;;;298.90;30.10;;;;;;;;;;5024321;28;20041;-47
2021/11/05 06:51:14;;;;;;;317.42;28.40;;;;;;;;;;5023399;28;20092;-50
2021/11/05 06:53:41;;;;;;;265.85;26.50;;;;;;;;;;5017867;28;20398;-50
2021/11/05 06:56:08;;;;;;;270.65;29.27;;;;;;;;;;5028597;28;20137;-48
2021/11/05 06:58:36;;;;;;;234.52;28.35;;;;;;;;;;5024485;28;20042;-49
2021/11/05 07:01:03;;;;;;;144.23;22.08;;;;;;;;;;5025907;28;20038;-48
2021/11/05 07:03:30;;;;;;;126.22;24.90;;;;;;;;;;5027606;28;20470;-45
2021/11/05 07:05:58;;;;;;;132.70;24.80;;;;;;;;;;5031497;28;20058;-46
2021/11/05 07:08:28;;;;;;;22.85;21.00;;;;;;;;;;5030296;28;20096;-49
2021/11/05 07:10:55;;;;;;;20.58;19.98;;;;;;;;;;5031776;28;20037;-48
2021/11/05 07:13:22;;;;;;;21.75;21.35;;;;;;;;;;5030000;28;20045;-47
2021/11/05 07:15:49;;;;;;;20.48;20.00;;;;;;;;;;5021928;28;20041;-48
2021/11/05 07:18:15;;;;;;;17.95;17.30;;;;;;;;;;5028652;28;20038;-47
2021/11/05 07:20:43;;;;;;;20.02;19.63;;;;;;;;;;5029272;28;20045;-50
2021/11/05 07:23:11;;;;;;;22.25;20.70;;;;;;;;;;5021568;28;20041;-49
2021/11/05 07:25:39;;;;;;;21.48;20.92;;;;;;;;;;5033796;28;20079;-49
2021/11/05 07:28:06;;;;;;;17.05;16.75;;;;;;;;;;5031195;28;20390;-47
2021/11/05 07:30:33;;;;;;;18.15;17.35;;;;;;;;;;5016395;28;20045;-49
2021/11/05 07:33:00;;;;;;;20.77;20.17;;;;;;;;;;5024427;28;20045;-52
2021/11/05 07:35:27;;;;;;;21.70;20.42;;;;;;;;;;5023407;28;20033;-49
2021/11/05 07:37:53;;;;;;;27.92;26.30;;;;;;;;;;5029677;28;20057;-53
2021/11/05 07:40:21;;;;;;;29.50;27.17;;;;;;;;;;5028933;28;20366;-49
2021/11/05 07:42:48;;;;;;;33.47;30.90;;;;;;;;;;5023263;28;20041;-50
2021/11/05 07:45:15;;;;;;;29.50;27.58;;;;;;;;;;5027168;28;20389;-48
2021/11/05 07:47:43;;;;;;;22.15;21.30;;;;;;;;;;5016802;28;20547;-51
2021/11/05 07:50:13;;;;;;;21.20;19.92;;;;;;;;;;5032605;28;20447;-51
2021/11/05 07:52:39;;;;;;;24.85;23.67;;;;;;;;;;5027501;28;20044;-48
2021/11/05 07:55:07;;;;;;;23.33;21.20;;;;;;;;;;5028091;28;20033;-48
2021/11/05 07:57:34;;;;;;;21.83;20.35;;;;;;;;;;5023724;28;20033;-48
2021/11/05 08:00:01;;;;;;;21.63;20.27;;;;;;;;;;5018361;28;20038;-48
2021/11/05 08:02:28;;;;;;;24.08;22.42;;;;;;;;;;5031662;28;20424;-50
2021/11/05 08:04:55;;;;;;;19.70;18.77;;;;;;;;;;5027063;28;20042;-51
2021/11/05 08:07:23;;;;;;;20.35;19.42;;;;;;;;;;5032245;28;20103;-50
2021/11/05 08:09:49;;;;;;;20.42;19.73;;;;;;;;;;5030545;28;20053;-49
2021/11/05 08:12:16;;;;;;;18.58;17.85;;;;;;;;;;5030683;28;20046;-47
2021/11/05 08:14:44;;;;;;;17.05;16.48;;;;;;;;;;5026414;28;20042;-50
2021/11/05 08:17:11;;;;;;;16.67;15.88;;;;;;;;;;5023399;28;20053;-50
2021/11/05 08:19:38;;;;;;;17.20;16.67;;;;;;;;;;5031238;28;20072;-48
2021/11/05 08:22:06;;;;;;;16.42;15.85;;;;;;;;;;5029091;28;20083;-51
2021/11/05 08:24:32;;;;;;;15.23;14.85;;;;;;;;;;5020236;28;20045;-48
2021/11/05 08:26:59;;;;;;;18.38;17.73;;;;;;;;;;5024975;28;20073;-47
2021/11/05 08:29:26;;;;;;;16.42;15.88;;;;;;;;;;5021421;28;20040;-50
2021/11/05 08:31:53;;;;;;;18.00;17.50;;;;;;;;;;5026165;28;20569;-51
2021/11/05 08:34:20;;;;;;;19.92;18.75;;;;;;;;;;5023509;28;20038;-50
2021/11/05 08:36:47;;;;;;;17.15;16.40;;;;;;;;;;5020681;28;20042;-49
2021/11/05 08:39:13;;;;;;;18.67;18.02;;;;;;;;;;5022373;28;20038;-47
2021/11/05 08:41:40;;;;;;;22.30;21.55;;;;;;;;;;5031709;28;20045;-51
2021/11/05 08:44:07;;;;;;;16.67;16.17;;;;;;;;;;5029405;28;20080;-51
2021/11/05 08:46:34;;;;;;;21.00;20.15;;;;;;;;;;5022741;28;20436;-50
2021/11/05 08:49:09;;;;;;;24.08;23.13;;;;;;;;;;5030419;28;20076;-50
2021/11/05 08:51:37;;;;;;;19.83;18.63;;;;;;;;;;5029468;28;20523;-51
2021/11/05 08:54:04;;;;;;;15.65;15.13;;;;;;;;;;5032145;28;20111;-49
2021/11/05 08:56:31;;;;;;;15.35;14.93;;;;;;;;;;5029089;28;20030;-49
2021/11/05 08:58:58;;;;;;;15.02;14.55;;;;;;;;;;5030186;28;20041;-52
2021/11/05 09:01:25;;;;;;;14.13;13.45;;;;;;;;;;5029816;28;20096;-52
2021/11/05 09:03:52;;;;;;;15.07;14.48;;;;;;;;;;5019031;28;20427;-52
2021/11/05 09:06:18;;;;;;;15.20;14.38;;;;;;;;;;5029805;28;20099;-47
2021/11/05 09:08:47;;;;;;;15.82;14.32;;;;;;;;;;5025547;28;20485;-52
2021/11/05 09:11:14;;;;;;;15.80;14.85;;;;;;;;;;5029892;28;20053;-49
2021/11/05 09:13:41;;;;;;;16.27;15.27;;;;;;;;;;5030527;28;20381;-50
2021/11/05 09:16:07;;;;;;;15.45;14.82;;;;;;;;;;5019015;28;20041;-50
2021/11/05 09:18:34;;;;;;;18.05;16.77;;;;;;;;;;5028111;28;20033;-51
2021/11/05 09:21:03;;;;;;;19.27;17.95;;;;;;;;;;5026166;28;20346;-51
2021/11/05 09:23:30;;;;;;;16.27;15.82;;;;;;;;;;5030817;28;20042;-50
2021/11/05 09:25:57;;;;;;;17.60;16.35;;;;;;;;;;5029378;28;20041;-51
2021/11/05 09:28:23;;;;;;;15.35;14.85;;;;;;;;;;5030544;28;20059;-51
2021/11/05 09:30:50;;;;;;;16.02;15.43;;;;;;;;;;5024103;28;20037;-51
2021/11/05 09:33:19;;;;;;;13.45;12.40;;;;;;;;;;5024303;28;20091;-51
2021/11/05 09:35:46;;;;;;;12.15;11.85;;;;;;;;;;5029977;28;20026;-47
2021/11/05 09:38:14;;;;;;;13.95;13.15;;;;;;;;;;5025420;28;20037;-51
2021/11/05 09:40:41;;;;;;;12.48;11.98;;;;;;;;;;5022979;28;20121;-50
2021/11/05 09:43:08;;;;;;;13.43;11.40;;;;;;;;;;5024405;28;20529;-50
2021/11/05 09:45:35;;;;;;;13.85;13.10;;;;;;;;;;5030164;28;20045;-51
2021/11/05 09:48:02;;;;;;;14.77;13.73;;;;;;;;;;5024267;28;20057;-50
2021/11/05 09:50:30;;;;;;;12.85;12.48;;;;;;;;;;5019426;28;20076;-49
2021/11/05 09:52:57;;;;;;;10.85;10.50;;;;;;;;;;5024254;28;20132;-53
2021/11/05 09:55:23;;;;;;;6.07;5.88;;;;;;;;;;5022197;28;20038;-50
2021/11/05 09:57:50;;;;;;;9.85;9.18;;;;;;;;;;5031505;28;20478;-51
2021/11/05 10:00:20;;;;;;;6.47;6.07;;;;;;;;;;5025630;28;20029;-49
2021/11/05 10:02:47;;;;;;;5.95;2.90;;;;;;;;;;5026890;28;20148;-48
2021/11/05 10:05:15;;;;;;;2.97;2.70;;;;;;;;;;5028802;28;20680;-50
2021/11/05 10:07:53;;;;;;;1.92;1.83;;;;;;;;;;5027910;28;20432;-50
2021/11/05 10:10:31;;;;;;;1.92;1.83;;;;;;;;;;5026908;28;20077;-51
2021/11/05 10:13:25;;;;;;;4.60;1.30;;;;;;;;;;5024042;28;20486;-51
2021/11/05 10:15:53;;;;;;;4.97;1.23;;;;;;;;;;5018338;28;20135;-50
2021/11/05 10:18:30;;;;;;;1.70;1.70;;;;;;;;;;5028751;28;20042;-51
2021/11/05 10:21:08;;;;;;;3.78;1.92;;;;;;;;;;5026953;28;20050;-50
2021/11/05 10:23:36;;;;;;;5.00;1.48;;;;;;;;;;5019261;28;20092;-51
2021/11/05 10:26:03;;;;;;;2.80;1.65;;;;;;;;;;5029710;28;20125;-50
2021/11/05 10:28:30;;;;;;;19.00;13.68;;;;;;;;;;5028038;28;20100;-51
2021/11/05 10:30:57;;;;;;;6.82;4.68;;;;;;;;;;5029896;28;20065;-49
2021/11/05 10:33:25;;;;;;;3.85;2.60;;;;;;;;;;5027740;28;20359;-51
2021/11/05 10:35:53;;;;;;;6.30;5.82;;;;;;;;;;5013044;28;20030;-52
2021/11/05 10:38:29;;;;;;;292.23;259.13;;;;;;;;;;5022706;28;20057;-49
2021/11/05 10:40:57;;;;;;;6.07;4.10;;;;;;;;;;5021168;28;20041;-51
2021/11/05 10:43:33;;;;;;;3.42;2.78;;;;;;;;;;5014323;28;20053;-52
2021/11/05 10:46:00;;;;;;;1.75;1.60;;;;;;;;;;5022566;28;20045;-53
2021/11/05 10:48:30;;;;;;;1.38;1.20;;;;;;;;;;5015894;28;20042;-52
2021/11/05 10:50:59;;;;;;;2.42;1.27;;;;;;;;;;5024220;28;20041;-52
2021/11/05 10:53:29;;;;;;;2.63;1.33;;;;;;;;;;5028897;28;20045;-51
2021/11/05 10:55:58;;;;;;;1.58;1.10;;;;;;;;;;5020099;28;20112;-51
2021/11/05 10:58:26;;;;;;;1.08;0.98;;;;;;;;;;5026040;28;20087;-53
2021/11/05 11:01:00;;;;;;;0.95;0.90;;;;;;;;;;5025482;28;20037;-53
2021/11/05 11:03:31;;;;;;;4.07;1.00;;;;;;;;;;5027049;28;20413;-50
2021/11/05 11:06:12;;;;;;;2.25;0.80;;;;;;;;;;5026019;28;20041;-52
2021/11/05 11:08:41;;;;;;;0.90;0.90;;;;;;;;;;5020686;28;20466;-52
2021/11/05 11:11:17;;;;;;;0.80;0.80;;;;;;;;;;5025982;28;20050;-53
2021/11/05 11:13:44;;;;;;;1.83;0.80;;;;;;;;;;5027631;28;20041;-53
2021/11/05 11:16:16;;;;;;;1.08;0.80;;;;;;;;;;5025249;28;20103;-51
2021/11/05 11:18:47;;;;;;;0.60;0.60;;;;;;;;;;5022736;28;20076;-52
2021/11/05 11:21:15;;;;;;;2.30;0.75;;;;;;;;;;5028687;28;20497;-52
2021/11/05 11:23:42;;;;;;;2.25;0.80;;;;;;;;;;5028087;28;20042;-53
2021/11/05 11:26:09;;;;;;;2.08;0.80;;;;;;;;;;5027098;28;20489;-51
2021/11/05 11:28:36;;;;;;;0.98;0.80;;;;;;;;;;5029655;28;20053;-54
2021/11/05 11:31:03;;;;;;;0.90;0.80;;;;;;;;;;5029505;28;20045;-52
2021/11/05 11:33:30;;;;;;;0.80;0.80;;;;;;;;;;5028190;28;20048;-52
2021/11/05 11:35:57;;;;;;;3.33;1.05;;;;;;;;;;5023142;28;20104;-53
2021/11/05 11:38:24;;;;;;;0.82;0.82;;;;;;;;;;5027833;28;20097;-52
2021/11/05 11:40:51;;;;;;;0.80;0.80;;;;;;;;;;5027935;28;20432;-54
2021/11/05 11:43:20;;;;;;;2.22;0.93;;;;;;;;;;5021019;28;20041;-54
2021/11/05 11:45:52;;;;;;;2.55;1.55;;;;;;;;;;5029979;28;20045;-52
2021/11/05 11:48:38;;;;;;;1.25;1.15;;;;;;;;;;5029513;28;20060;-54
2021/11/05 11:51:25;;;;;;;1.00;1.00;;;;;;;;;;5016818;28;20879;-53
2021/11/05 11:53:54;;;;;;;1.45;1.15;;;;;;;;;;5032584;28;20499;-54
2021/11/05 11:56:27;;;;;;;1.25;0.90;;;;;;;;;;5028160;28;20034;-52
2021/11/05 11:58:55;;;;;;;2.97;0.90;;;;;;;;;;5025712;28;20048;-51
2021/11/05 12:01:23;;;;;;;2.50;0.90;;;;;;;;;;5029760;28;20073;-52
2021/11/05 12:04:01;;;;;;;1.65;1.55;;;;;;;;;;5031381;28;20037;-52
2021/11/05 12:06:48;;;;;;;1.40;0.90;;;;;;;;;;5031384;28;20040;-52
2021/11/05 12:09:25;;;;;;;2.55;1.05;;;;;;;;;;5028012;28;20041;-52
2021/11/05 12:12:12;;;;;;;1.52;1.30;;;;;;;;;;5025550;28;20136;-54
2021/11/05 12:14:57;;;;;;;2.03;0.90;;;;;;;;;;5029780;28;20042;-51
2021/11/05 12:17:25;;;;;;;1.00;1.00;;;;;;;;;;5026168;28;20465;-52
2021/11/05 12:19:55;;;;;;;2.38;1.10;;;;;;;;;;5026628;28;20038;-53
2021/11/05 12:22:21;;;;;;;1.73;1.60;;;;;;;;;;5030662;28;20068;-53
2021/11/05 12:24:48;;;;;;;1.95;0.80;;;;;;;;;;5022993;28;20045;-53
2021/11/05 12:27:17;;;;;;;2.05;0.95;;;;;;;;;;5032644;28;20041;-53
2021/11/05 12:29:44;;;;;;;0.85;0.80;;;;;;;;;;5031030;28;20026;-54
2021/11/05 12:32:13;;;;;;;2.22;0.90;;;;;;;;;;5029087;28;20549;-52
2021/11/05 12:34:45;;;;;;;3.15;0.90;;;;;;;;;;5030550;28;20037;-52
2021/11/05 12:37:13;;;;;;;1.00;1.00;;;;;;;;;;5030167;28;20540;-53
2021/11/05 12:39:41;;;;;;;1.50;0.82;;;;;;;;;;5028836;28;20029;-50
2021/11/05 12:42:09;;;;;;;3.15;1.00;;;;;;;;;;5030999;28;21358;-49
2021/11/05 12:44:56;;;;;;;1.20;0.85;;;;;;;;;;5017169;28;20073;-49
2021/11/05 12:47:41;;;;;;;0.90;0.90;;;;;;;;;;5028938;28;20446;-48
2021/11/05 12:50:08;;;;;;;0.90;0.90;;;;;;;;;;5029594;28;20045;-47
2021/11/05 12:52:35;;;;;;;1.13;0.90;;;;;;;;;;5030146;28;20099;-45
2021/11/05 12:55:03;;;;;;;0.90;0.90;;;;;;;;;;5023523;28;20343;-46
2021/11/05 12:57:30;;;;;;;0.90;0.90;;;;;;;;;;5031357;28;20103;-45
2021/11/05 12:59:57;;;;;;;2.63;0.85;;;;;;;;;;5027729;28;20091;-47
2021/11/05 13:02:24;;;;;;;1.00;1.00;;;;;;;;;;5028159;28;20488;-50
2021/11/05 13:04:52;;;;;;;5.47;0.90;;;;;;;;;;5021284;28;20038;-48
2021/11/05 13:07:20;;;;;;;2.10;0.90;;;;;;;;;;5024654;28;20398;-49
2021/11/05 13:09:49;;;;;;;1.90;0.80;;;;;;;;;;5042357;28;20075;-45
2021/11/05 13:12:20;;;;;;;1.80;0.90;;;;;;;;;;5026922;28;20046;-47
2021/11/05 13:14:49;;;;;;;1.73;0.95;;;;;;;;;;5026195;28;20133;-46
2021/11/05 13:17:26;;;;;;;1.08;1.00;;;;;;;;;;5028140;28;20037;-45
2021/11/05 13:19:54;;;;;;;1.27;1.20;;;;;;;;;;5027958;28;20038;-48
2021/11/05 13:22:23;;;;;;;2.63;1.00;;;;;;;;;;5030320;28;20046;-46
2021/11/05 13:24:50;;;;;;;1.05;0.98;;;;;;;;;;5023427;28;20421;-44
2021/11/05 13:27:16;;;;;;;1.67;0.90;;;;;;;;;;5026842;28;20033;-46
2021/11/05 13:29:47;;;;;;;2.33;2.22;;;;;;;;;;5023237;28;20462;-44
2021/11/05 13:32:16;;;;;;;2.40;2.30;;;;;;;;;;5023582;28;20489;-45
2021/11/05 13:34:43;;;;;;;2.33;2.13;;;;;;;;;;5019034;28;20041;-47
2021/11/05 13:37:11;;;;;;;2.08;1.95;;;;;;;;;;5022859;28;20065;-45
2021/11/05 13:39:38;;;;;;;5.95;5.65;;;;;;;;;;5026803;28;20068;-54
2021/11/05 13:42:09;;;;;;;2.22;1.20;;;;;;;;;;5029395;28;20069;-53
2021/11/05 13:44:35;;;;;;;4.40;1.30;;;;;;;;;;5024213;28;20536;-53
2021/11/05 13:47:15;;;;;;;3.30;1.45;;;;;;;;;;5030171;28;20107;-54
2021/11/05 13:49:42;;;;;;;1.20;0.80;;;;;;;;;;5028912;28;20042;-53
2021/11/05 13:52:09;;;;;;;1.10;0.90;;;;;;;;;;5013617;28;20049;-53
2021/11/05 13:54:43;;;;;;;0.80;0.80;;;;;;;;;;5029568;28;20455;-54
2021/11/05 13:57:14;;;;;;;1.05;0.93;;;;;;;;;;5024762;28;20131;-53
2021/11/05 13:59:42;;;;;;;1.25;1.15;;;;;;;;;;5022589;28;20109;-52
2021/11/05 14:02:09;;;;;;;1.88;1.10;;;;;;;;;;5024690;28;20111;-53
2021/11/05 14:04:36;;;;;;;1.30;1.15;;;;;;;;;;5021637;28;20044;-53
2021/11/05 14:07:08;;;;;;;1.80;1.38;;;;;;;;;;5029307;28;20437;-53
2021/11/05 14:09:35;;;;;;;1.67;1.00;;;;;;;;;;5026858;28;20626;-53
2021/11/05 14:12:03;;;;;;;1.30;1.02;;;;;;;;;;5026185;28;20517;-53
2021/11/05 14:14:31;;;;;;;1.73;1.00;;;;;;;;;;5025284;28;20433;-52
2021/11/05 14:17:34;;;;;;;1.13;1.05;;;;;;;;;;5012478;28;20046;-52
2021/11/05 14:20:02;;;;;;;1.20;1.10;;;;;;;;;;5045636;28;20045;-54
2021/11/05 14:22:37;;;;;;;1.08;1.00;;;;;;;;;;5043073;28;20048;-54
2021/11/05 14:25:14;;;;;;;1.90;1.80;;;;;;;;;;5047554;28;20496;-54
2021/11/05 14:27:41;;;;;;;2.55;1.70;;;;;;;;;;5042988;28;20473;-54
2021/11/05 14:30:15;;;;;;;1.33;1.20;;;;;;;;;;5032522;28;20052;-53